.
WxDataArchive / Data Records for 2014-07-20
2014-07-19 July 2014 2014-07-21

Data Records for Sunday, 20 July 2014

Time	Temp	Chill	HIndex	Humid	Dewpt	 Wind 	HiWind	WindDir	Rain 	Barom
-----	----	-----	------	-----	-----	------	------	-------	-----	-----
00:00	65.0	65.0	65.0	88	61.4	0	0	---	0.00	30.019 
00:05	64.8	64.8	64.8	88	61.2	0	0	---	0.00	30.019 
00:10	64.5	64.5	64.5	88	60.9	0	0	---	0.00	30.019 
00:15	64.3	64.3	64.3	88	60.7	0	0	---	0.00	30.013 
00:20	64.2	64.2	64.2	88	60.6	0	0	---	0.00	30.013 
00:25	63.9	63.9	63.9	89	60.6	0	0	---	0.00	30.013 
00:30	63.7	63.7	63.7	89	60.4	0	0	---	0.00	30.006 
00:35	63.5	63.5	63.5	90	60.5	0	0	---	0.00	30.006 
00:40	63.5	63.5	63.5	90	60.5	0	0	---	0.00	30.006 
00:45	63.7	63.7	63.7	91	61.0	0	0	---	0.00	30.004 
00:50	63.5	63.5	63.5	90	60.5	0	0	---	0.00	30.004 
00:55	63.4	63.4	63.4	90	60.4	0	0	---	0.00	30.004 
01:00	63.2	63.2	63.2	91	60.5	0	0	---	0.00	30.007 
01:05	63.1	63.1	63.1	90	60.1	0	0	---	0.00	30.007 
01:10	62.9	62.9	62.9	91	60.2	0	0	---	0.00	30.007 
01:15	62.7	62.7	62.7	91	60.0	0	0	---	0.00	30.007 
01:20	62.6	62.6	62.6	91	59.9	0	0	---	0.00	30.007 
01:25	62.4	62.4	62.4	91	59.7	0	0	---	0.00	30.007 
01:30	62.3	62.3	62.3	91	59.6	0	0	---	0.00	30.010 
01:35	62.1	62.1	62.1	91	59.4	0	0	---	0.00	30.010 
01:40	62.0	62.0	62.0	91	59.3	0	0	---	0.00	30.010 
01:45	62.0	62.0	62.0	91	59.3	0	0	---	0.00	30.007 
01:50	61.8	61.8	61.8	91	59.1	0	0	---	0.00	30.007 
01:55	61.8	61.8	61.8	92	59.4	0	0	---	0.00	30.007 
02:00	61.6	61.6	61.6	92	59.2	0	0	---	0.00	30.006 
02:05	61.5	61.5	61.5	92	59.2	0	0	---	0.00	30.006 
02:10	61.3	61.3	61.3	92	59.0	0	0	---	0.00	30.006 
02:15	61.2	61.2	61.2	92	58.9	0	0	---	0.00	30.006 
02:20	61.2	61.2	61.2	92	58.9	0	0	---	0.00	30.006 
02:25	61.0	61.0	61.0	92	58.7	0	0	---	0.00	30.006 
02:30	61.0	61.0	61.0	92	58.7	0	0	---	0.00	30.004 
02:35	60.9	60.9	60.9	92	58.6	0	0	---	0.00	30.004 
02:40	60.7	60.7	60.7	92	58.4	0	0	---	0.00	30.004 
02:45	60.5	60.5	60.5	92	58.2	0	0	---	0.00	29.999 
02:50	60.5	60.5	60.5	92	58.2	0	0	---	0.00	29.999 
02:55	60.4	60.4	60.4	93	58.4	0	0	---	0.00	29.999 
03:00	60.4	60.4	60.4	93	58.4	0	0	---	0.00	29.999 
03:05	60.4	60.4	60.4	93	58.4	0	0	---	0.00	29.999 
03:10	60.4	60.4	60.4	93	58.4	0	0	---	0.00	29.999 
03:15	60.4	60.4	60.4	93	58.4	0	0	---	0.00	30.005 
03:20	60.4	60.4	60.4	93	58.4	0	0	---	0.00	30.005 
03:25	60.4	60.4	60.4	93	58.4	0	0	---	0.00	30.005 
03:30	60.2	60.2	60.2	93	58.2	0	0	---	0.00	30.006 
03:35	60.2	60.2	60.2	93	58.2	0	0	---	0.00	30.006 
03:40	60.1	60.1	60.1	93	58.1	0	0	---	0.00	30.006 
03:45	59.9	59.9	59.9	93	57.9	0	0	---	0.00	30.005 
03:50	59.9	59.9	59.9	94	58.2	0	0	---	0.00	30.005 
03:55	59.8	59.8	59.8	94	58.1	0	0	---	0.00	30.005 
04:00	59.6	59.6	59.6	94	57.9	0	0	---	0.00	30.003 
04:05	59.5	59.5	59.5	94	57.8	0	0	---	0.00	30.003 
04:10	59.5	59.5	59.5	94	57.8	0	0	---	0.00	30.003 
04:15	59.3	59.3	59.3	94	57.6	0	0	---	0.00	30.004 
04:20	59.2	59.2	59.2	94	57.5	0	0	---	0.00	30.004 
04:25	59.2	59.2	59.2	94	57.5	0	0	---	0.00	30.004 
04:30	59.0	59.0	59.0	94	57.3	0	0	---	0.00	30.006 
04:35	59.0	59.0	59.0	94	57.3	0	0	---	0.00	30.006 
04:40	58.9	58.9	58.9	94	57.2	0	0	---	0.00	30.006 
04:45	58.9	58.9	58.9	94	57.2	0	0	---	0.00	30.007 
04:50	58.9	58.9	58.9	94	57.2	0	0	---	0.00	30.007 
04:55	58.7	58.7	58.7	94	57.0	0	0	---	0.00	30.007 
05:00	58.7	58.7	58.7	94	57.0	0	0	---	0.00	30.009 
05:05	58.6	58.6	58.6	94	56.9	0	0	---	0.00	30.009 
05:10	58.4	58.4	58.4	94	56.7	0	0	---	0.00	30.009 
05:15	58.4	58.4	58.4	94	56.7	0	0	---	0.00	30.017 
05:20	58.3	58.3	58.3	94	56.6	0	0	---	0.00	30.017 
05:25	58.3	58.3	58.3	94	56.6	0	0	---	0.00	30.017 
05:30	58.3	58.3	58.3	94	56.6	0	0	---	0.00	30.021 
05:35	58.1	58.1	58.1	94	56.4	0	0	---	0.00	30.021 
05:40	58.0	58.0	58.0	94	56.3	0	0	---	0.00	30.021 
05:45	58.0	58.0	58.0	94	56.3	0	0	---	0.00	30.022 
05:50	57.8	57.8	57.8	94	56.1	0	0	---	0.00	30.022 
05:55	57.8	57.8	57.8	94	56.1	0	0	---	0.00	30.022 
06:00	57.8	57.8	57.8	95	56.4	0	0	---	0.00	30.021 
06:05	57.8	57.8	57.8	95	56.4	0	0	---	0.00	30.021 
06:10	57.8	57.8	57.8	95	56.4	0	0	---	0.00	30.021 
06:15	57.6	57.6	57.6	95	56.2	0	0	---	0.00	30.023 
06:20	57.6	57.6	57.6	95	56.2	0	0	---	0.00	30.023 
06:25	57.6	57.6	57.6	95	56.2	0	0	---	0.00	30.023 
06:30	57.5	57.5	57.5	95	56.1	0	0	---	0.00	30.022 
06:35	57.5	57.5	57.5	95	56.1	0	0	---	0.00	30.022 
06:40	57.3	57.3	57.3	95	55.9	0	0	---	0.00	30.022 
06:45	57.3	57.3	57.3	95	55.9	0	0	---	0.00	30.026 
06:50	57.3	57.3	57.3	95	55.9	0	0	---	0.00	30.026 
06:55	57.5	57.5	57.5	95	56.1	0	0	---	0.00	30.026 
07:00	57.5	57.5	57.5	95	56.1	0	0	---	0.00	30.028 
07:05	57.6	57.6	57.6	95	56.2	0	0	---	0.00	30.028 
07:10	57.8	57.8	57.8	95	56.4	0	0	---	0.00	30.028 
07:15	58.0	58.0	58.0	95	56.6	0	0	---	0.00	30.031 
07:20	58.0	58.0	58.0	95	56.6	0	0	---	0.00	30.031 
07:25	58.3	58.3	58.3	95	56.9	0	0	---	0.00	30.031 
07:30	58.6	58.6	58.6	95	57.2	0	0	---	0.00	30.035 
07:35	58.9	58.9	58.9	95	57.5	0	0	---	0.00	30.035 
07:40	59.2	59.2	59.2	96	58.1	0	0	---	0.00	30.035 
07:45	59.3	59.3	59.3	95	57.9	0	0	---	0.00	30.040 
07:50	59.6	59.6	59.6	95	58.2	0	0	---	0.00	30.040 
07:55	60.1	60.1	60.1	96	59.0	0	0	---	0.00	30.040 
08:00	60.5	60.5	60.5	96	59.4	0	0	---	0.00	30.041 
08:05	61.0	61.0	61.0	96	59.8	0	0	---	0.00	30.041 
08:10	61.3	61.3	61.3	96	60.1	0	0	---	0.00	30.041 
08:15	61.8	61.8	61.8	96	60.6	0	0	---	0.00	30.044 
08:20	62.0	62.0	62.0	95	60.5	0	0	---	0.00	30.044 
08:25	62.4	62.4	62.4	95	60.9	0	0	---	0.00	30.044 
08:30	62.9	62.9	62.9	95	61.4	0	1	68	0.00	30.046 
08:35	63.7	63.7	63.7	95	62.2	0	1	68	0.00	30.046 
08:40	64.3	64.3	64.3	94	62.5	0	0	---	0.00	30.046 
08:45	65.2	65.2	65.2	94	63.4	0	0	---	0.00	30.048 
08:50	66.0	66.0	66.0	92	63.6	0	0	---	0.00	30.048 
08:55	66.6	66.6	66.6	91	63.9	0	1	68	0.00	30.048 
09:00	67.1	67.1	67.1	89	63.7	0	2	68	0.00	30.049 
09:05	67.3	67.3	67.3	88	63.6	0	1	68	0.00	30.049 
09:10	67.8	67.8	67.8	87	63.8	0	2	68	0.00	30.049 
09:15	68.4	68.4	68.4	86	64.0	0	1	68	0.00	30.053 
09:20	69.4	69.4	69.4	84	64.3	0	1	68	0.00	30.053 
09:25	70.1	70.1	70.1	83	64.7	0	1	68	0.00	30.053 
09:30	70.6	70.6	70.6	81	64.5	0	1	68	0.00	30.051 
09:35	71.5	71.5	71.5	79	64.6	0	1	68	0.00	30.051 
09:40	72.3	72.3	72.3	76	64.3	0	1	68	0.00	30.051 
09:45	72.7	72.7	72.7	75	64.3	0	1	68	0.00	30.048 
09:50	73.0	73.0	73.0	74	64.2	0	2	68	0.00	30.048 
09:55	73.2	73.2	73.2	73	64.0	0	2	68	0.00	30.048 
10:00	73.5	73.5	73.5	73	64.3	0	2	68	0.00	30.050 
10:05	73.7	73.7	73.7	72	64.1	0	2	68	0.00	30.050 
10:10	74.0	74.0	74.0	70	63.6	0	1	68	0.00	30.050 
10:15	74.9	74.9	74.9	69	64.0	0	2	68	0.00	30.049 
10:20	75.4	75.4	77.3	67	63.7	0	2	68	0.00	30.049 
10:25	75.8	75.8	77.7	66	63.6	0	1	68	0.00	30.049 
10:30	76.1	76.1	78.0	65	63.5	0	2	68	0.00	30.049 
10:35	76.1	76.1	78.0	62	62.1	0	3	68	0.00	30.049 
10:40	76.3	76.3	78.2	62	62.3	0	1	68	0.00	30.049 
10:45	76.0	76.0	77.9	64	62.9	1	5	68	0.00	30.049 
10:50	75.8	75.8	77.7	66	63.6	1	3	68	0.00	30.049 
10:55	76.0	76.0	77.8	66	63.8	1	3	68	0.00	30.049 
11:00	76.3	76.3	78.1	65	63.6	1	3	68	0.00	30.048 
11:05	76.7	76.7	78.5	63	63.1	0	1	68	0.00	30.048 
11:10	77.0	77.0	78.8	62	63.0	0	2	68	0.00	30.048 
11:15	77.4	77.4	79.1	61	62.9	0	2	68	0.00	30.048 
11:20	77.6	77.6	79.3	61	63.1	1	2	68	0.00	30.048 
11:25	77.7	77.7	79.4	59	62.2	1	4	90	0.00	30.048 
11:30	77.4	77.4	79.1	61	62.9	1	3	90	0.00	30.048 
11:35	77.0	77.0	78.8	62	63.0	1	3	90	0.00	30.048 
11:40	76.8	76.8	78.6	62	62.8	1	2	90	0.00	30.048 
11:45	77.2	77.2	79.0	61	62.7	1	4	90	0.00	30.047 
11:50	77.7	77.7	79.3	58	61.7	0	2	90	0.00	30.047 
11:55	78.1	78.1	79.7	59	62.6	1	3	90	0.00	30.047 
12:00	78.5	78.5	79.9	56	61.5	1	4	90	0.00	30.046 
12:05	78.5	78.5	79.9	56	61.5	0	3	90	0.00	30.046 
12:10	78.6	78.6	80.0	55	61.1	2	6	90	0.00	30.046 
12:15	78.8	78.8	80.0	53	60.2	0	2	90	0.00	30.040 
12:20	79.0	79.0	80.3	54	60.9	1	6	90	0.00	30.040 
12:25	79.0	79.0	80.3	55	61.4	1	4	90	0.00	30.040 
12:30	78.8	78.8	80.1	54	60.7	2	5	90	0.00	30.043 
12:35	78.6	78.6	80.0	55	61.1	1	4	90	0.00	30.043 
12:40	79.0	79.0	80.3	54	60.9	1	3	90	0.00	30.043 
12:45	79.0	79.0	80.4	56	61.9	0	3	90	0.00	30.038 
12:50	79.2	79.2	80.7	57	62.6	0	2	90	0.00	30.038 
12:55	79.4	79.4	80.8	56	62.3	1	3	90	0.00	30.038 
13:00	79.6	79.6	81.0	56	62.5	0	2	90	0.00	30.035 
13:05	80.1	80.1	81.4	55	62.4	1	4	90	0.00	30.035 
13:10	80.3	80.3	81.5	54	62.1	1	4	135	0.00	30.035 
13:15	80.7	80.7	81.9	54	62.5	0	2	135	0.00	30.033 
13:20	80.9	80.9	81.9	52	61.6	1	6	90	0.00	30.033 
13:25	81.1	81.1	82.1	52	61.8	0	2	90	0.00	30.033 
13:30	80.9	80.9	81.9	52	61.6	1	4	90	0.00	30.031 
13:35	80.9	80.9	81.9	52	61.6	1	3	158	0.00	30.031 
13:40	80.9	80.9	81.8	51	61.0	1	5	158	0.00	30.031 
13:45	80.9	80.9	81.9	52	61.6	1	3	90	0.00	30.031 
13:50	80.5	80.5	81.5	52	61.2	1	5	90	0.00	30.031 
13:55	80.5	80.5	81.5	52	61.2	1	4	90	0.00	30.031 
14:00	80.7	80.7	81.6	51	60.9	1	3	90	0.00	30.027 
14:05	81.1	81.1	82.1	52	61.8	1	4	90	0.00	30.027 
14:10	81.2	81.2	81.9	50	60.8	1	3	90	0.00	30.027 
14:15	81.8	81.8	82.6	50	61.3	0	2	90	0.00	30.029 
14:20	81.8	81.8	82.6	50	61.3	1	3	90	0.00	30.029 
14:25	82.2	82.2	83.0	50	61.7	1	3	180	0.00	30.029 
14:30	82.0	82.0	82.8	50	61.5	1	5	68	0.00	30.023 
14:35	82.2	82.2	82.7	48	60.5	1	5	68	0.00	30.023 
14:40	82.4	82.4	82.7	47	60.1	1	5	112	0.00	30.023 
14:45	82.6	82.6	83.1	48	60.9	0	2	135	0.00	30.019 
14:50	82.8	82.8	82.9	45	59.3	1	4	135	0.00	30.019 
14:55	82.2	82.2	82.7	48	60.5	2	6	90	0.00	30.019 
15:00	82.2	82.2	82.4	46	59.3	1	4	90	0.00	30.018 
15:05	82.6	82.6	83.0	47	60.3	0	2	112	0.00	30.018 
15:10	83.0	83.0	83.9	50	62.4	1	3	112	0.00	30.018 
15:15	83.4	83.4	83.7	46	60.4	0	2	112	0.00	30.016 
15:20	83.2	83.2	83.3	45	59.6	0	2	112	0.00	30.016 
15:25	83.4	83.4	83.3	44	59.2	1	4	112	0.00	30.016 
15:30	83.0	83.0	82.8	43	58.2	1	3	135	0.00	30.015 
15:35	82.4	82.4	82.5	45	58.9	1	4	135	0.00	30.015 
15:40	82.4	82.4	82.6	46	59.5	1	3	68	0.00	30.015 
15:45	82.8	82.8	82.7	44	58.6	0	2	68	0.00	30.011 
15:50	83.0	83.0	83.2	46	60.1	0	2	68	0.00	30.011 
15:55	83.4	83.4	83.7	46	60.4	1	3	68	0.00	30.011 
16:00	83.0	83.0	83.2	46	60.1	1	5	68	0.00	30.007 
16:05	82.4	82.4	82.5	45	58.9	1	2	68	0.00	30.007 
16:10	82.0	82.0	82.5	48	60.3	0	1	68	0.00	30.007 
16:15	82.4	82.4	82.7	47	60.1	0	2	68	0.00	30.006 
16:20	82.8	82.8	82.6	43	58.0	1	4	90	0.00	30.006 
16:25	83.4	83.4	83.3	44	59.2	1	3	90	0.00	30.006 
16:30	83.2	83.2	83.1	44	59.0	0	3	112	0.00	30.005 
16:35	82.6	82.6	82.7	45	59.1	0	2	112	0.00	30.005 
16:40	82.4	82.4	82.5	45	58.9	0	2	112	0.00	30.005 
16:45	82.8	82.8	82.7	44	58.6	0	2	112	0.00	30.001 
16:50	83.2	83.2	83.3	45	59.6	1	4	112	0.00	30.001 
16:55	83.2	83.2	83.1	44	59.0	1	5	112	0.00	30.001 
17:00	82.6	82.6	82.4	43	57.8	2	4	90	0.00	30.000 
17:05	82.6	82.6	82.7	45	59.1	0	1	90	0.00	30.000 
17:10	82.6	82.6	82.7	45	59.1	1	5	90	0.00	30.000 
17:15	82.4	82.4	82.2	43	57.6	1	4	90	0.00	30.001 
17:20	82.4	82.4	82.3	44	58.3	0	3	90	0.00	30.001 
17:25	82.6	82.6	82.4	43	57.8	0	1	90	0.00	30.001 
17:30	83.0	83.0	82.9	44	58.8	0	3	90	0.00	29.999 
17:35	83.4	83.4	83.2	43	58.5	0	2	90	0.00	29.999 
17:40	83.2	83.2	83.0	43	58.3	1	4	90	0.00	29.999 
17:45	83.2	83.2	83.1	44	59.0	0	1	90	0.00	29.998 
17:50	83.2	83.2	83.0	43	58.3	0	1	90	0.00	29.998 
17:55	83.0	83.0	83.1	45	59.4	0	3	90	0.00	29.998 
18:00	83.2	83.2	83.3	45	59.6	0	2	90	0.00	29.995 
18:05	83.2	83.2	83.3	45	59.6	0	2	90	0.00	29.995 
18:10	82.8	82.8	82.9	45	59.3	1	3	90	0.00	29.995 
18:15	82.4	82.4	82.6	46	59.5	0	3	90	0.00	29.990 
18:20	82.2	82.2	82.4	46	59.3	0	2	90	0.00	29.990 
18:25	82.0	82.0	82.1	45	58.5	0	1	90	0.00	29.990 
18:30	81.6	81.6	81.8	46	58.8	0	1	90	0.00	29.989 
18:35	81.4	81.4	81.6	46	58.6	0	1	90	0.00	29.989 
18:40	81.1	81.1	81.5	47	58.9	0	2	90	0.00	29.989 
18:45	80.9	80.9	81.2	46	58.2	1	3	90	0.00	29.995 
18:50	80.7	80.7	81.1	47	58.6	0	2	90	0.00	29.995 
18:55	80.5	80.5	80.9	47	58.4	0	3	90	0.00	29.995 
19:00	80.3	80.3	80.9	48	58.8	0	3	90	0.00	29.998 
19:05	80.3	80.3	80.9	48	58.8	0	1	90	0.00	29.998 
19:10	80.3	80.3	80.9	48	58.8	0	1	90	0.00	29.998 
19:15	80.1	80.1	80.7	48	58.6	0	2	90	0.00	29.996 
19:20	80.1	80.1	80.7	48	58.6	0	2	90	0.00	29.996 
19:25	79.9	79.9	80.7	50	59.6	0	1	90	0.00	29.996 
19:30	79.9	79.9	80.7	50	59.6	0	1	90	0.00	29.996 
19:35	79.8	79.8	80.6	50	59.5	0	1	90	0.00	29.996 
19:40	79.6	79.6	80.4	49	58.7	0	1	90	0.00	29.996 
19:45	79.4	79.4	80.1	48	58.0	0	1	90	0.00	29.997 
19:50	79.2	79.2	80.1	49	58.4	0	1	90	0.00	29.997 
19:55	79.2	79.2	80.1	50	58.9	0	1	90	0.00	29.997 
20:00	79.0	79.0	80.0	50	58.7	0	0	---	0.00	29.994 
20:05	78.8	78.8	79.9	51	59.1	0	0	---	0.00	29.994 
20:10	78.8	78.8	79.9	51	59.1	0	1	90	0.00	29.994 
20:15	78.6	78.6	79.8	52	59.5	0	0	---	0.00	29.993 
20:20	78.5	78.5	79.7	52	59.4	0	0	---	0.00	29.993 
20:25	78.3	78.3	79.7	54	60.3	0	0	---	0.00	29.993 
20:30	77.9	77.9	79.3	54	59.9	0	0	---	0.00	29.992 
20:35	77.6	77.6	79.2	55	60.1	0	0	---	0.00	29.992 
20:40	77.4	77.4	79.0	56	60.5	0	0	---	0.00	29.992 
20:45	77.0	77.0	78.7	56	60.1	0	0	---	0.00	29.997 
20:50	76.8	76.8	78.6	57	60.4	0	0	---	0.00	29.997 
20:55	76.5	76.5	78.4	58	60.6	0	0	---	0.00	29.997 
21:00	76.0	76.0	78.0	58	60.1	0	0	---	0.00	30.001 
21:05	75.6	75.6	77.8	59	60.2	0	0	---	0.00	30.001 
21:10	75.3	75.3	77.5	60	60.4	0	0	---	0.00	30.001 
21:15	74.9	74.9	74.9	61	60.5	0	0	---	0.00	29.996 
21:20	74.4	74.4	74.4	62	60.5	0	0	---	0.00	29.996 
21:25	73.9	73.9	73.9	63	60.5	0	0	---	0.00	29.996 
21:30	73.5	73.5	73.5	63	60.1	0	0	---	0.00	29.998 
21:35	73.2	73.2	73.2	65	60.7	0	0	---	0.00	29.998 
21:40	72.8	72.8	72.8	65	60.3	0	0	---	0.00	29.998 
21:45	72.5	72.5	72.5	65	60.0	0	0	---	0.00	30.009 
21:50	72.1	72.1	72.1	67	60.5	0	0	---	0.00	30.009 
21:55	71.8	71.8	71.8	68	60.7	0	0	---	0.00	30.009 
22:00	71.5	71.5	71.5	69	60.8	0	0	---	0.00	30.013 
22:05	71.1	71.1	71.1	71	61.2	0	0	---	0.00	30.013 
22:10	70.8	70.8	70.8	71	60.9	0	0	---	0.00	30.013 
22:15	70.6	70.6	70.6	72	61.1	0	0	---	0.00	30.014 
22:20	70.3	70.3	70.3	73	61.2	0	0	---	0.00	30.014 
22:25	70.1	70.1	70.1	73	61.0	0	0	---	0.00	30.014 
22:30	69.8	69.8	69.8	74	61.1	0	0	---	0.00	30.014 
22:35	69.6	69.6	69.6	74	60.9	0	0	---	0.00	30.014 
22:40	69.4	69.4	69.4	75	61.1	0	0	---	0.00	30.014 
22:45	69.1	69.1	69.1	75	60.8	0	0	---	0.00	30.018 
22:50	68.9	68.9	68.9	76	61.0	0	0	---	0.00	30.018 
22:55	68.8	68.8	68.8	76	60.9	0	0	---	0.00	30.018 
23:00	68.4	68.4	68.4	77	60.9	0	0	---	0.00	30.021 
23:05	68.3	68.3	68.3	78	61.2	0	0	---	0.00	30.021 
23:10	68.1	68.1	68.1	78	61.0	0	0	---	0.00	30.021 
23:15	67.9	67.9	67.9	78	60.8	0	0	---	0.00	30.017 
23:20	67.8	67.8	67.8	79	61.0	0	0	---	0.00	30.017 
23:25	67.6	67.6	67.6	80	61.2	0	0	---	0.00	30.017 
23:30	67.3	67.3	67.3	80	60.9	0	0	---	0.00	30.018 
23:35	67.1	67.1	67.1	81	61.1	0	0	---	0.00	30.018 
23:40	66.9	66.9	66.9	81	60.9	0	0	---	0.00	30.018 
23:45	66.8	66.8	66.8	81	60.8	0	0	---	0.00	30.022 
23:50	66.6	66.6	66.6	81	60.6	0	0	---	0.00	30.022 
23:55	66.4	66.4	66.4	82	60.7	0	0	---	0.00	30.022 

CoCoRaHS
IN-AL-39
A2 Web Hosting
Creative Commons License
GoDaddy
search engine by freefind advanced

loaded 2018-11-17 22:29:24 • last modified 2010-11-18 10:43:29
Privacy PolicyDisclaimer
• wx.awcolley.com is powered by PmWiki v.2002016 •
• all content (unless otherwise noted) © 2018 A W Colley